createdAt,value
2022-09-26T00:01:48.329Z,12.3
2022-09-26T00:04:14.929Z,12.3
2022-09-26T00:06:41.534Z,12.3
2022-09-26T00:09:08.153Z,12.3
2022-09-26T00:11:34.737Z,12.3
2022-09-26T00:14:01.395Z,12.2
2022-09-26T00:16:27.984Z,12.1
2022-09-26T00:18:54.634Z,12.1
2022-09-26T00:21:21.249Z,12.1
2022-09-26T00:23:46.362Z,12
2022-09-26T00:26:12.996Z,11.9
2022-09-26T00:28:39.613Z,11.9
2022-09-26T00:31:06.235Z,11.9
2022-09-26T00:33:32.871Z,11.9
2022-09-26T00:35:59.475Z,11.9
2022-09-26T00:38:26.154Z,11.9
2022-09-26T00:40:52.718Z,11.9
2022-09-26T00:43:19.363Z,11.9
2022-09-26T00:45:45.964Z,11.9
2022-09-26T00:48:12.602Z,11.9
2022-09-26T00:50:39.209Z,11.9
2022-09-26T00:53:05.871Z,11.9
2022-09-26T00:55:30.966Z,11.9
2022-09-26T01:00:24.216Z,11.9
2022-09-26T01:02:50.831Z,11.9
2022-09-26T01:05:17.463Z,11.9
2022-09-26T01:07:42.595Z,11.9
2022-09-26T01:10:09.243Z,11.9
2022-09-26T01:12:35.841Z,11.9
2022-09-26T01:15:02.462Z,11.9
2022-09-26T01:17:29.094Z,11.9
2022-09-26T01:19:55.707Z,11.8
2022-09-26T01:22:22.336Z,11.8
2022-09-26T01:24:48.964Z,11.8
2022-09-26T01:27:15.607Z,11.8
2022-09-26T01:29:42.197Z,11.7
2022-09-26T01:32:08.834Z,11.7
2022-09-26T01:34:35.441Z,11.6
2022-09-26T01:37:02.132Z,11.6
2022-09-26T01:39:27.254Z,11.6
2022-09-26T01:41:53.840Z,11.6
2022-09-26T01:44:20.439Z,11.6
2022-09-26T01:46:47.113Z,11.5
2022-09-26T01:49:13.681Z,11.5
2022-09-26T01:51:40.310Z,11.5
2022-09-26T01:54:06.937Z,11.5
2022-09-26T01:56:33.555Z,11.5
2022-09-26T01:59:00.185Z,11.4
2022-09-26T02:01:26.807Z,11.4
2022-09-26T02:03:53.433Z,11.4
2022-09-26T02:06:20.066Z,11.5
2022-09-26T02:08:46.679Z,11.4
2022-09-26T02:11:11.796Z,11.4
2022-09-26T02:13:38.449Z,11.4
2022-09-26T02:16:05.052Z,11.4
2022-09-26T02:18:31.670Z,11.4
2022-09-26T02:20:58.281Z,11.3
2022-09-26T02:23:25.013Z,11.3
2022-09-26T02:25:51.541Z,11.3
2022-09-26T02:28:18.159Z,11.3
2022-09-26T02:30:44.779Z,11.2
2022-09-26T02:33:11.408Z,11.2
2022-09-26T02:35:38.029Z,11.2
2022-09-26T02:38:04.647Z,11.1
2022-09-26T02:40:31.277Z,11
2022-09-26T02:42:56.420Z,11
2022-09-26T02:45:23.084Z,11
2022-09-26T02:47:49.641Z,11
2022-09-26T02:50:16.264Z,10.9
2022-09-26T02:52:42.894Z,10.8
2022-09-26T02:55:09.516Z,10.8
2022-09-26T02:57:36.141Z,10.8
2022-09-26T03:00:02.747Z,10.8
2022-09-26T03:02:29.376Z,10.8
2022-09-26T03:04:56.048Z,10.7
2022-09-26T03:07:22.666Z,10.7
2022-09-26T03:09:49.242Z,10.7
2022-09-26T03:12:15.872Z,10.7
2022-09-26T03:14:40.992Z,10.6
2022-09-26T03:17:07.630Z,10.7
2022-09-26T03:19:34.269Z,10.7
2022-09-26T03:22:00.868Z,10.7
2022-09-26T03:24:27.565Z,10.7
2022-09-26T03:26:54.110Z,10.7
2022-09-26T03:29:20.743Z,10.7
2022-09-26T03:31:47.381Z,10.7
2022-09-26T03:34:13.986Z,10.6
2022-09-26T03:36:40.592Z,10.6
2022-09-26T03:39:07.305Z,10.5
2022-09-26T03:41:33.846Z,10.5
2022-09-26T03:44:00.472Z,10.5
2022-09-26T03:46:25.591Z,10.5
2022-09-26T03:48:52.217Z,10.5
2022-09-26T03:51:18.893Z,10.4
2022-09-26T03:53:45.494Z,10.4
2022-09-26T03:56:12.131Z,10.4
2022-09-26T03:58:38.725Z,10.4
2022-09-26T04:01:05.339Z,10.3
2022-09-26T04:03:31.950Z,10.3
2022-09-26T04:05:58.589Z,10.4
2022-09-26T04:08:25.211Z,10.4
2022-09-26T04:10:51.823Z,10.3
2022-09-26T04:13:18.456Z,10.2
2022-09-26T04:15:45.079Z,10.2
2022-09-26T04:18:11.706Z,10.2
2022-09-26T04:20:36.827Z,10.2
2022-09-26T04:23:03.452Z,10.2
2022-09-26T04:25:30.072Z,10.2
2022-09-26T04:27:56.687Z,10.2
2022-09-26T04:30:23.328Z,10.2
2022-09-26T04:32:49.938Z,10.3
2022-09-26T04:35:16.565Z,10.2
2022-09-26T04:37:43.200Z,10.3
2022-09-26T04:40:09.826Z,10.2
2022-09-26T04:42:36.442Z,10.2
2022-09-26T04:45:03.072Z,10.2
2022-09-26T04:47:29.692Z,10.1
2022-09-26T04:49:56.302Z,10.1
2022-09-26T04:52:22.919Z,10
2022-09-26T04:54:48.127Z,9.9
2022-09-26T04:57:14.684Z,9.9
2022-09-26T04:59:41.304Z,9.8
2022-09-26T05:02:07.940Z,9.8
2022-09-26T05:04:34.569Z,9.9
2022-09-26T05:07:01.195Z,9.9
2022-09-26T05:11:54.469Z,9.8
2022-09-26T05:14:21.045Z,9.8
2022-09-26T05:16:47.683Z,9.8
2022-09-26T05:19:14.287Z,9.8
2022-09-26T05:21:40.913Z,9.8
2022-09-26T05:24:07.601Z,9.8
2022-09-26T05:26:32.648Z,9.8
2022-09-26T05:28:59.334Z,9.8
2022-09-26T05:31:25.892Z,9.7
2022-09-26T05:33:52.518Z,9.8
2022-09-26T05:36:19.266Z,9.8
2022-09-26T05:38:45.771Z,9.8
2022-09-26T05:41:12.391Z,9.9
2022-09-26T05:43:39.007Z,9.9
2022-09-26T05:46:05.667Z,9.9
2022-09-26T05:48:32.272Z,10
2022-09-26T05:50:58.880Z,10
2022-09-26T05:53:25.504Z,10
2022-09-26T05:55:52.166Z,10.1
2022-09-26T05:58:17.260Z,10.1
2022-09-26T06:00:43.874Z,10.2
2022-09-26T06:03:10.499Z,10.2
2022-09-26T06:05:37.171Z,10.4
2022-09-26T06:08:03.861Z,10.7
2022-09-26T06:10:30.378Z,10.9
2022-09-26T06:12:56.987Z,11
2022-09-26T06:15:23.649Z,10.8
2022-09-26T06:17:50.234Z,10.9
2022-09-26T06:20:16.868Z,11.1
2022-09-26T06:22:43.483Z,13.2
2022-09-26T06:25:10.109Z,13.8
2022-09-26T06:27:36.734Z,13.3
2022-09-26T06:30:03.354Z,13.1
2022-09-26T06:34:55.097Z,12.7
2022-09-26T06:37:21.727Z,12.6
2022-09-26T06:39:48.398Z,12.5
2022-09-26T06:42:15.046Z,12.4
2022-09-26T06:44:41.587Z,12.5
2022-09-26T06:47:08.216Z,12.7
2022-09-26T06:49:34.844Z,12.8
2022-09-26T06:52:01.452Z,13.3
2022-09-26T06:54:28.097Z,15
2022-09-26T06:56:54.738Z,14.3
2022-09-26T06:59:21.407Z,13.9
2022-09-26T07:01:48.002Z,13.7
2022-09-26T07:04:13.112Z,13.6
2022-09-26T07:06:39.932Z,13.6
2022-09-26T07:09:06.352Z,13.4
2022-09-26T07:11:32.982Z,13.3
2022-09-26T07:13:59.581Z,13.4
2022-09-26T07:16:26.199Z,13.2
2022-09-26T07:18:52.813Z,13.2
2022-09-26T07:21:19.449Z,13.3
2022-09-26T07:23:46.072Z,13.3
2022-09-26T07:26:12.685Z,13.4
2022-09-26T07:28:39.307Z,13.4
2022-09-26T07:31:05.952Z,13.5
2022-09-26T07:33:32.564Z,13.7
2022-09-26T07:35:57.680Z,13.8
2022-09-26T07:38:24.309Z,13.8
2022-09-26T07:40:50.915Z,14.8
2022-09-26T07:43:17.575Z,16.1
2022-09-26T07:45:44.169Z,15.8
2022-09-26T07:50:37.494Z,15.5
2022-09-26T07:53:04.049Z,15.3
2022-09-26T07:55:30.667Z,15.3
2022-09-26T07:57:57.280Z,15.3
2022-09-26T08:00:23.923Z,16.5
2022-09-26T08:02:50.539Z,16.7
2022-09-26T08:05:17.143Z,18.5
2022-09-26T08:07:42.342Z,18.1
2022-09-26T08:10:08.915Z,20
2022-09-26T08:12:35.534Z,21
2022-09-26T08:15:02.208Z,22.5
2022-09-26T08:17:28.811Z,20.9
2022-09-26T08:19:55.394Z,19.3
2022-09-26T08:22:22.021Z,18
2022-09-26T08:24:48.656Z,17.1
2022-09-26T08:27:15.287Z,16.6
2022-09-26T08:29:41.880Z,16.1
2022-09-26T08:32:08.522Z,16
2022-09-26T08:34:35.143Z,15.9
2022-09-26T08:37:01.779Z,15.5
2022-09-26T08:39:26.888Z,15.4
2022-09-26T08:41:53.492Z,15.5
2022-09-26T08:44:20.119Z,15.5
2022-09-26T08:46:46.757Z,15.4
2022-09-26T08:51:40.045Z,15.5
2022-09-26T08:54:06.620Z,15.8
2022-09-26T08:56:33.292Z,15.9
2022-09-26T08:58:59.864Z,16.2
2022-09-26T09:01:26.498Z,16.8
2022-09-26T09:03:53.146Z,18.2
2022-09-26T09:06:19.775Z,20.4
2022-09-26T09:08:46.481Z,21.8
2022-09-26T09:11:11.486Z,23
2022-09-26T09:13:38.103Z,23.4
2022-09-26T09:16:04.726Z,23.9
2022-09-26T09:18:29.909Z,24.1
2022-09-26T09:20:56.559Z,24.3
2022-09-26T09:23:23.124Z,24.2
2022-09-26T09:25:49.756Z,24.5
2022-09-26T09:28:16.343Z,25
2022-09-26T09:30:42.987Z,25
2022-09-26T09:33:09.588Z,25.7
2022-09-26T09:35:36.222Z,25.9
2022-09-26T09:38:02.867Z,26.3
2022-09-26T09:40:29.465Z,25.8
2022-09-26T09:42:56.086Z,25.6
2022-09-26T09:45:22.708Z,25.9
2022-09-26T09:47:49.340Z,24.7
2022-09-26T09:50:14.491Z,24.9
2022-09-26T09:52:41.086Z,24.6
2022-09-26T09:55:07.724Z,24.3
2022-09-26T09:57:34.325Z,23.5
2022-09-26T10:00:00.952Z,23.3
2022-09-26T10:02:27.585Z,22.1
2022-09-26T10:04:54.186Z,20.7
2022-09-26T10:07:20.811Z,20
2022-09-26T10:09:47.447Z,19.4
2022-09-26T10:12:14.068Z,18.9
2022-09-26T10:14:40.673Z,18.2
2022-09-26T10:17:07.310Z,18
2022-09-26T10:19:33.938Z,18
2022-09-26T10:21:59.059Z,18.6
2022-09-26T10:24:25.701Z,18.8
2022-09-26T10:29:19.002Z,18.7
2022-09-26T10:31:45.556Z,18.8
2022-09-26T10:34:12.173Z,18.4
2022-09-26T10:36:38.790Z,18.5
2022-09-26T10:39:05.419Z,18.5
2022-09-26T10:41:32.180Z,18.6
2022-09-26T10:43:58.662Z,18.7
2022-09-26T10:46:25.289Z,18.7
2022-09-26T10:48:51.911Z,18.6
2022-09-26T10:51:18.549Z,18.4
2022-09-26T10:53:43.672Z,18.5
2022-09-26T10:56:10.284Z,18.7
2022-09-26T11:01:03.538Z,19.4
2022-09-26T11:03:30.165Z,19.3
2022-09-26T11:05:56.792Z,19.5
2022-09-26T11:08:23.425Z,19.3
2022-09-26T11:10:50.073Z,19.2
2022-09-26T11:13:16.628Z,19.3
2022-09-26T11:15:43.279Z,19.7
2022-09-26T11:18:09.887Z,19.8
2022-09-26T11:20:36.503Z,19.6
2022-09-26T11:23:03.160Z,19.4
2022-09-26T11:25:28.282Z,19.4
2022-09-26T11:27:54.880Z,20
2022-09-26T11:30:21.506Z,20
2022-09-26T11:32:48.163Z,19.6
2022-09-26T11:35:14.804Z,19.6
2022-09-26T11:37:41.410Z,19.6
2022-09-26T11:40:08.015Z,19.7
2022-09-26T11:42:34.629Z,19.1
2022-09-26T11:45:01.316Z,19
2022-09-26T11:47:27.855Z,19
2022-09-26T11:49:54.490Z,18.8
2022-09-26T11:52:21.094Z,18.7
2022-09-26T11:54:47.730Z,18.6
2022-09-26T11:57:12.860Z,18.4
2022-09-26T11:59:39.472Z,18.4
2022-09-26T12:02:06.092Z,18.8
2022-09-26T12:04:32.726Z,19
2022-09-26T12:06:59.333Z,19
2022-09-26T12:09:25.960Z,18.7
2022-09-26T12:11:52.627Z,18.5
2022-09-26T12:14:19.208Z,18.4
2022-09-26T12:16:45.832Z,19
2022-09-26T12:21:39.070Z,19
2022-09-26T12:24:05.696Z,18.8
2022-09-26T12:26:32.405Z,18.9
2022-09-26T12:28:57.456Z,19
2022-09-26T12:31:24.076Z,19.4
2022-09-26T12:33:50.701Z,19.7
2022-09-26T12:36:17.313Z,20
2022-09-26T12:38:43.938Z,20.1
2022-09-26T12:43:37.189Z,19.6
2022-09-26T12:46:03.802Z,19.4
2022-09-26T12:48:30.428Z,19.1
2022-09-26T12:50:57.049Z,19.1
2022-09-26T12:53:23.669Z,19.5
2022-09-26T12:55:50.301Z,19.9
2022-09-26T12:58:16.911Z,20.1
2022-09-26T13:00:42.060Z,20.1
2022-09-26T13:03:08.676Z,20
2022-09-26T13:05:35.287Z,19.7
2022-09-26T13:08:01.922Z,19.6
2022-09-26T13:12:55.153Z,18.9
2022-09-26T13:15:21.790Z,18.6
2022-09-26T13:17:48.396Z,18.7
2022-09-26T13:20:15.020Z,18.4
2022-09-26T13:22:41.682Z,18.2
2022-09-26T13:25:08.286Z,18.1
2022-09-26T13:27:34.931Z,18.1
2022-09-26T13:30:01.575Z,18.2
2022-09-26T13:32:26.764Z,18.1
2022-09-26T13:34:53.272Z,18
2022-09-26T13:37:19.900Z,17.7
2022-09-26T13:39:46.505Z,17.4
2022-09-26T13:42:13.129Z,17.1
2022-09-26T13:44:39.752Z,16.9
2022-09-26T13:47:06.387Z,16.8
2022-09-26T13:49:33.009Z,16.7
2022-09-26T13:51:59.621Z,16.4
2022-09-26T13:56:52.921Z,16.3
2022-09-26T13:59:19.503Z,16.3
2022-09-26T14:01:46.116Z,16.2
2022-09-26T14:04:12.749Z,16.3
2022-09-26T14:06:37.936Z,16.4
2022-09-26T14:09:04.486Z,16.6
2022-09-26T14:11:31.117Z,16.7
2022-09-26T14:13:57.738Z,16.8
2022-09-26T14:16:24.354Z,16.9
2022-09-26T14:18:50.977Z,16.9
2022-09-26T14:21:17.603Z,16.9
2022-09-26T14:26:10.922Z,17
2022-09-26T14:28:37.470Z,17.1
2022-09-26T14:31:04.094Z,17
2022-09-26T14:33:30.709Z,17.3
2022-09-26T14:35:57.343Z,17.6
2022-09-26T14:38:24.028Z,17.7
2022-09-26T14:40:49.086Z,17.7
2022-09-26T14:43:15.734Z,17.5
2022-09-26T14:45:42.329Z,17.3
2022-09-26T14:48:08.983Z,17.2
2022-09-26T14:50:35.569Z,17.3
2022-09-26T14:53:02.196Z,17.2
2022-09-26T14:55:28.817Z,17.1
2022-09-26T14:57:55.482Z,17
2022-09-26T15:00:22.050Z,17
2022-09-26T15:02:48.729Z,17
2022-09-26T15:05:15.305Z,17
2022-09-26T15:07:41.994Z,16.9
2022-09-26T15:10:08.555Z,16.8
2022-09-26T15:12:35.182Z,16.8
2022-09-26T15:15:00.302Z,16.8
2022-09-26T15:17:26.920Z,16.8
2022-09-26T15:19:53.554Z,16.7
2022-09-26T15:22:20.175Z,16.6
2022-09-26T15:27:13.424Z,16.4
2022-09-26T15:29:40.029Z,16.3
2022-09-26T15:32:06.703Z,16.2
2022-09-26T15:34:33.294Z,16.1
2022-09-26T15:36:59.906Z,16.1
2022-09-26T15:39:26.526Z,16.1
2022-09-26T15:41:53.166Z,16.1
2022-09-26T15:44:19.772Z,16.1
2022-09-26T15:46:44.897Z,16
2022-09-26T15:49:11.533Z,16
2022-09-26T15:51:38.154Z,16
2022-09-26T15:54:04.776Z,16
2022-09-26T15:56:31.395Z,15.9
2022-09-26T15:58:58.015Z,15.9
2022-09-26T16:01:24.639Z,15.9
2022-09-26T16:03:51.262Z,15.8
2022-09-26T16:06:17.884Z,15.8
2022-09-26T16:08:44.492Z,15.7
2022-09-26T16:11:11.144Z,15.6
2022-09-26T16:13:37.745Z,15.6
2022-09-26T16:16:04.375Z,15.6
2022-09-26T16:18:29.582Z,15.6
2022-09-26T16:20:56.120Z,15.5
2022-09-26T16:23:22.741Z,15.5
2022-09-26T16:25:49.390Z,15.4
2022-09-26T16:28:15.980Z,15.4
2022-09-26T16:30:42.610Z,15.3
2022-09-26T16:33:09.263Z,15.3
2022-09-26T16:35:35.863Z,15.2
2022-09-26T16:38:02.481Z,15.2
2022-09-26T16:40:29.102Z,15.1
2022-09-26T16:42:55.721Z,15.1
2022-09-26T16:45:22.334Z,15
2022-09-26T16:47:48.990Z,15
2022-09-26T16:50:14.092Z,14.9
2022-09-26T16:52:40.726Z,14.9
2022-09-26T16:55:07.348Z,14.9
2022-09-26T16:57:33.967Z,14.9
2022-09-26T17:00:00.596Z,14.9
2022-09-26T17:02:27.207Z,14.8
2022-09-26T17:04:53.850Z,14.8
2022-09-26T17:07:20.515Z,14.7
2022-09-26T17:09:47.101Z,14.7
2022-09-26T17:12:13.712Z,14.6
2022-09-26T17:14:40.332Z,14.6
2022-09-26T17:17:06.954Z,14.5
2022-09-26T17:19:33.565Z,14.4
2022-09-26T17:21:58.714Z,14.4
2022-09-26T17:24:25.354Z,14.3
2022-09-26T17:26:51.930Z,14.2
2022-09-26T17:29:17.083Z,14.2
2022-09-26T17:31:43.715Z,14.1
2022-09-26T17:34:10.324Z,14.1
2022-09-26T17:36:36.977Z,14
2022-09-26T17:39:03.640Z,13.9
2022-09-26T17:41:30.245Z,13.9
2022-09-26T17:43:56.839Z,13.9
2022-09-26T17:46:23.476Z,13.9
2022-09-26T17:48:50.066Z,13.9
2022-09-26T17:51:16.691Z,13.9
2022-09-26T17:53:43.296Z,13.8
2022-09-26T17:56:09.921Z,13.8
2022-09-26T17:58:36.563Z,13.8
2022-09-26T18:01:01.667Z,13.8
2022-09-26T18:03:28.299Z,13.8
2022-09-26T18:05:54.972Z,13.7
2022-09-26T18:08:21.566Z,13.7
2022-09-26T18:10:48.149Z,13.7
2022-09-26T18:13:14.802Z,13.7
2022-09-26T18:15:41.397Z,13.7
2022-09-26T18:18:08.036Z,13.7
2022-09-26T18:20:34.651Z,13.7
2022-09-26T18:23:01.270Z,13.6
2022-09-26T18:25:27.891Z,13.5
2022-09-26T18:27:54.539Z,13.5
2022-09-26T18:30:21.176Z,13.4
2022-09-26T18:32:46.270Z,13.4
2022-09-26T18:35:12.891Z,13.4
2022-09-26T18:37:39.572Z,13.5
2022-09-26T18:40:06.237Z,13.5
2022-09-26T18:42:32.773Z,13.5
2022-09-26T18:44:59.377Z,13.5
2022-09-26T18:47:26.004Z,13.4
2022-09-26T18:49:52.617Z,13.3
2022-09-26T18:52:19.340Z,13.2
2022-09-26T18:54:45.876Z,13.1
2022-09-26T18:57:12.508Z,13.1
2022-09-26T18:59:39.173Z,13
2022-09-26T19:02:05.746Z,13
2022-09-26T19:04:30.867Z,13
2022-09-26T19:06:57.493Z,12.9
2022-09-26T19:09:24.116Z,12.9
2022-09-26T19:11:50.746Z,12.9
2022-09-26T19:14:17.359Z,12.8
2022-09-26T19:16:44.028Z,12.7
2022-09-26T19:19:10.640Z,12.7
2022-09-26T19:21:37.267Z,12.6
2022-09-26T19:24:04.009Z,12.5
2022-09-26T19:26:30.523Z,12.5
2022-09-26T19:28:57.096Z,12.6
2022-09-26T19:31:23.842Z,12.6
2022-09-26T19:33:50.439Z,12.6
2022-09-26T19:36:15.548Z,12.6
2022-09-26T19:38:42.093Z,12.6
2022-09-26T19:41:08.737Z,12.6
2022-09-26T19:43:35.398Z,12.6
2022-09-26T19:46:01.977Z,12.6
2022-09-26T19:48:28.594Z,12.6
2022-09-26T19:50:55.333Z,12.5
2022-09-26T19:53:21.842Z,12.5
2022-09-26T19:55:48.548Z,12.5
2022-09-26T19:58:15.143Z,12.5
2022-09-26T20:00:41.792Z,12.5
2022-09-26T20:03:08.332Z,12.5
2022-09-26T20:05:34.952Z,12.5
2022-09-26T20:08:00.079Z,12.5
2022-09-26T20:10:26.691Z,12.5
2022-09-26T20:12:53.397Z,12.5
2022-09-26T20:15:19.948Z,12.5
2022-09-26T20:17:46.580Z,12.5
2022-09-26T20:20:13.190Z,12.5
2022-09-26T20:22:39.814Z,12.5
2022-09-26T20:25:06.425Z,12.5
2022-09-26T20:27:33.056Z,12.5
2022-09-26T20:29:59.693Z,12.4
2022-09-26T20:32:26.308Z,12.4
2022-09-26T20:34:52.929Z,12.5
2022-09-26T20:39:46.179Z,12.5
2022-09-26T20:42:11.297Z,12.5
2022-09-26T20:44:37.939Z,12.6
2022-09-26T20:47:04.538Z,12.6
2022-09-26T20:49:31.175Z,12.7
2022-09-26T20:51:57.798Z,12.7
2022-09-26T20:54:24.427Z,12.7
2022-09-26T20:56:51.032Z,12.8
2022-09-26T20:59:17.661Z,12.7
2022-09-26T21:01:44.286Z,12.7
2022-09-26T21:04:10.917Z,12.7
2022-09-26T21:06:37.528Z,12.9
2022-09-26T21:09:04.164Z,13
2022-09-26T21:11:30.775Z,12.9
2022-09-26T21:13:55.916Z,12.9
2022-09-26T21:16:22.532Z,12.8
2022-09-26T21:18:49.249Z,12.7
2022-09-26T21:21:15.776Z,12.7
2022-09-26T21:23:42.396Z,12.7
2022-09-26T21:26:09.063Z,12.7
2022-09-26T21:28:35.658Z,12.7
2022-09-26T21:31:02.275Z,12.7
2022-09-26T21:33:28.968Z,12.8
2022-09-26T21:35:55.553Z,12.9
2022-09-26T21:38:22.141Z,12.9
2022-09-26T21:40:48.751Z,12.9
2022-09-26T21:43:15.388Z,12.9
2022-09-26T21:45:40.494Z,12.9
2022-09-26T21:48:07.129Z,12.9
2022-09-26T21:50:33.813Z,12.9
2022-09-26T21:53:00.409Z,12.9
2022-09-26T21:55:27.010Z,12.9
2022-09-26T21:57:53.650Z,13
2022-09-26T22:00:20.235Z,13
2022-09-26T22:02:46.879Z,12.9
2022-09-26T22:05:13.482Z,12.9
2022-09-26T22:07:40.163Z,12.8
2022-09-26T22:10:06.736Z,12.7
2022-09-26T22:12:33.374Z,12.6
2022-09-26T22:14:59.981Z,12.5
2022-09-26T22:17:25.112Z,12.3
2022-09-26T22:19:51.723Z,12.3
2022-09-26T22:22:18.364Z,12.2
2022-09-26T22:24:45.011Z,12.1
2022-09-26T22:27:11.611Z,12
2022-09-26T22:29:38.247Z,11.9
2022-09-26T22:32:04.846Z,11.9
2022-09-26T22:34:31.479Z,11.8
2022-09-26T22:39:24.719Z,11.7
2022-09-26T22:41:51.339Z,11.7
2022-09-26T22:44:17.979Z,11.6
2022-09-26T22:46:44.597Z,11.6
2022-09-26T22:49:09.718Z,11.5
2022-09-26T22:51:36.392Z,11.4
2022-09-26T22:54:03.020Z,11.4
2022-09-26T22:56:29.565Z,11.4
2022-09-26T22:58:56.252Z,11.4
2022-09-26T23:01:22.827Z,11.3
2022-09-26T23:03:49.511Z,11.3
2022-09-26T23:08:42.699Z,11.3
2022-09-26T23:11:09.317Z,11.2
2022-09-26T23:13:35.940Z,11.2
2022-09-26T23:16:02.581Z,11.1
2022-09-26T23:18:29.195Z,11.1
2022-09-26T23:20:54.301Z,11
2022-09-26T23:25:47.554Z,11.1
2022-09-26T23:28:12.681Z,11.1
2022-09-26T23:30:39.317Z,11.1
2022-09-26T23:33:05.954Z,11
2022-09-26T23:35:31.050Z,11
2022-09-26T23:37:57.682Z,11
2022-09-26T23:42:50.917Z,10.9
2022-09-26T23:45:17.558Z,10.9
2022-09-26T23:47:44.171Z,10.9
2022-09-26T23:52:37.413Z,10.9
2022-09-26T23:55:04.040Z,10.9
2022-09-26T23:57:30.664Z,10.9
2022-09-26T23:59:55.796Z,10.9
